Cartago, Costa Rica
Current Conditions -  °F | °C
As of 8:00 PM on Friday 28 Nov 2014 (Local Time) from MROC Reporting Station
Few Clouds Few Clouds  
Wind Chill: 72°   Ceiling: Unl
Heat Index: 72°   Visibility: 6mi
Dew Point: 61°   Wind: 13mph
Humidity: 69%   Direction: 80°E
Pressure: 29.95"   Gusts: NA
Location:  9.87°N, 83.93°W
Report Text: MROC 290200Z 08011KT 9999 FEW035 22/16 A2995 NOSIG
Loading
Personal Weather Stations






























Interactive Weather Map New forecast layout! Learn more

10-Day Weather Forecast

Advertisements
Track Severe Weather on mobile